createdAt,value
2023-04-19T00:01:35.951Z,4.97
2023-04-19T00:04:04.647Z,5.00
2023-04-19T00:06:33.701Z,5.37
2023-04-19T00:09:03.925Z,5.57
2023-04-19T00:11:34.277Z,5.37
2023-04-19T00:14:03.038Z,5.77
2023-04-19T00:16:33.919Z,5.80
2023-04-19T00:19:02.592Z,5.70
2023-04-19T00:21:31.561Z,5.97
2023-04-19T00:24:00.102Z,6.37
2023-04-19T00:26:30.646Z,5.53
2023-04-19T00:28:58.900Z,5.70
2023-04-19T00:31:28.274Z,6.17
2023-04-19T00:33:58.031Z,5.80
2023-04-19T00:36:26.778Z,6.47
2023-04-19T00:38:54.939Z,6.10
2023-04-19T00:41:23.827Z,6.10
2023-04-19T00:43:54.478Z,6.03
2023-04-19T00:46:26.560Z,5.37
2023-04-19T00:48:57.165Z,6.03
2023-04-19T00:51:53.938Z,6.03
2023-04-19T00:54:40.206Z,5.70
2023-04-19T00:57:09.665Z,5.87
2023-04-19T00:59:42.557Z,6.20
2023-04-19T01:02:12.158Z,6.27
2023-04-19T01:04:40.511Z,6.00
2023-04-19T01:07:10.779Z,5.77
2023-04-19T01:09:43.035Z,5.67
2023-04-19T01:12:12.266Z,5.90
2023-04-19T01:14:42.428Z,5.93
2023-04-19T01:17:11.086Z,6.00
2023-04-19T01:19:39.903Z,5.83
2023-04-19T01:22:21.053Z,6.20
2023-04-19T01:24:53.029Z,6.63
2023-04-19T01:27:23.049Z,5.77
2023-04-19T01:30:06.895Z,6.53
2023-04-19T01:32:35.499Z,6.80
2023-04-19T01:35:04.809Z,6.37
2023-04-19T01:37:44.916Z,6.60
2023-04-19T01:40:17.465Z,7.67
2023-04-19T01:42:46.401Z,6.73
2023-04-19T01:45:14.555Z,6.97
2023-04-19T01:47:42.874Z,7.50
2023-04-19T01:50:12.484Z,7.57
2023-04-19T01:52:40.750Z,7.87
2023-04-19T01:55:10.879Z,7.37
2023-04-19T01:57:48.356Z,8.63
2023-04-19T02:00:19.378Z,7.53
2023-04-19T02:02:58.984Z,7.40
2023-04-19T02:11:38.292Z,7.07
2023-04-19T02:14:09.046Z,8.00
2023-04-19T02:16:38.779Z,7.87
2023-04-19T02:19:07.064Z,8.23
2023-04-19T02:21:36.608Z,8.00
2023-04-19T02:24:05.065Z,8.07
2023-04-19T02:26:33.918Z,8.03
2023-04-19T02:29:02.668Z,8.20
2023-04-19T02:31:33.759Z,9.43
2023-04-19T02:34:02.144Z,8.90
2023-04-19T02:36:31.249Z,8.53
2023-04-19T02:39:00.331Z,8.67
2023-04-19T02:41:28.825Z,9.00
2023-04-19T02:43:57.674Z,8.50
2023-04-19T02:46:26.004Z,9.20
2023-04-19T02:48:56.579Z,8.90
2023-04-19T02:51:24.985Z,9.77
2023-04-19T02:53:53.094Z,9.80
2023-04-19T02:56:21.990Z,9.87
2023-04-19T02:58:50.514Z,9.93
2023-04-19T03:01:20.009Z,8.77
2023-04-19T03:03:48.619Z,9.63
2023-04-19T03:06:19.830Z,9.20
2023-04-19T03:08:48.076Z,9.33
2023-04-19T03:11:17.850Z,9.67
2023-04-19T03:13:46.433Z,10.33
2023-04-19T03:16:14.621Z,9.77
2023-04-19T03:18:43.075Z,10.17
2023-04-19T03:21:11.416Z,10.23
2023-04-19T03:23:41.415Z,10.17
2023-04-19T03:26:09.660Z,10.50
2023-04-19T03:28:38.453Z,11.10
2023-04-19T03:31:06.740Z,10.30
2023-04-19T03:33:34.756Z,11.20
2023-04-19T03:36:02.858Z,11.67
2023-04-19T03:38:31.361Z,11.37
2023-04-19T03:41:03.805Z,11.20
2023-04-19T03:43:32.084Z,11.57
2023-04-19T03:46:00.248Z,11.60
2023-04-19T03:48:28.430Z,11.20
2023-04-19T03:50:56.498Z,11.27
2023-04-19T03:53:24.495Z,11.60
2023-04-19T03:55:53.152Z,12.20
2023-04-19T03:58:23.530Z,11.70
2023-04-19T04:00:52.094Z,12.93
2023-04-19T04:03:20.580Z,11.53
2023-04-19T04:05:48.679Z,12.30
2023-04-19T04:08:16.737Z,12.40
2023-04-19T04:10:44.758Z,12.23
2023-04-19T04:13:12.726Z,12.40
2023-04-19T04:15:42.461Z,11.63
2023-04-19T04:18:12.135Z,12.53
2023-04-19T04:20:40.484Z,12.77
2023-04-19T04:23:11.290Z,13.37
2023-04-19T04:25:39.365Z,12.20
2023-04-19T04:28:10.235Z,12.73
2023-04-19T04:30:38.652Z,13.40
2023-04-19T04:33:08.793Z,13.43
2023-04-19T04:35:36.992Z,12.80
2023-04-19T04:38:17.506Z,13.87
2023-04-19T04:40:53.759Z,13.47
2023-04-19T04:43:22.895Z,13.87
2023-04-19T04:45:51.454Z,13.87
2023-04-19T04:48:22.705Z,15.20
2023-04-19T04:50:50.900Z,14.63
2023-04-19T04:53:19.185Z,14.87
2023-04-19T04:55:47.679Z,14.10
2023-04-19T04:58:16.649Z,14.50
2023-04-19T05:00:45.495Z,15.17
2023-04-19T05:03:14.129Z,14.30
2023-04-19T05:05:45.242Z,14.43
2023-04-19T05:08:13.639Z,13.70
2023-04-19T05:10:41.829Z,15.80
2023-04-19T05:13:10.221Z,17.03
2023-04-19T05:15:38.298Z,15.73
2023-04-19T05:18:07.272Z,15.63
2023-04-19T05:20:35.753Z,16.23
2023-04-19T05:23:05.944Z,15.70
2023-04-19T05:25:34.134Z,16.93
2023-04-19T05:28:03.893Z,15.83
2023-04-19T05:30:31.992Z,15.53
2023-04-19T05:33:00.525Z,15.17
2023-04-19T05:35:28.710Z,15.53
2023-04-19T05:37:57.218Z,15.47
2023-04-19T05:40:26.965Z,17.57
2023-04-19T05:42:58.042Z,18.93
2023-04-19T05:45:27.117Z,16.70
2023-04-19T05:47:55.655Z,16.30
2023-04-19T05:50:23.761Z,17.40
2023-04-19T05:52:51.909Z,16.10
2023-04-19T05:55:20.243Z,16.60
2023-04-19T05:57:50.970Z,16.80
2023-04-19T06:00:19.821Z,18.50
2023-04-19T06:02:48.206Z,16.20
2023-04-19T06:05:16.786Z,16.93
2023-04-19T06:07:54.527Z,16.77
2023-04-19T06:10:25.853Z,16.13
2023-04-19T06:12:58.427Z,16.07
2023-04-19T06:15:27.767Z,15.97
2023-04-19T06:17:57.524Z,16.47
2023-04-19T06:20:27.585Z,15.90
2023-04-19T06:22:55.599Z,16.00
2023-04-19T06:25:24.190Z,15.27
2023-04-19T06:27:52.533Z,16.67
2023-04-19T06:30:22.108Z,15.13
2023-04-19T06:32:50.296Z,16.83
2023-04-19T06:35:19.627Z,19.67
2023-04-19T06:37:47.723Z,18.90
2023-04-19T06:40:15.818Z,16.50
2023-04-19T06:42:43.999Z,16.53
2023-04-19T06:45:13.184Z,16.23
2023-04-19T06:47:43.112Z,15.70
2023-04-19T06:50:13.819Z,15.80
2023-04-19T06:52:42.224Z,15.40
2023-04-19T06:55:11.294Z,16.23
2023-04-19T06:57:39.747Z,15.83
2023-04-19T07:00:10.586Z,16.13
2023-04-19T07:02:39.183Z,16.03
2023-04-19T07:05:12.975Z,16.00
2023-04-19T07:07:41.477Z,16.37
2023-04-19T07:10:11.345Z,16.03
2023-04-19T07:12:48.772Z,15.17
2023-04-19T07:15:17.564Z,14.83
2023-04-19T07:17:47.060Z,15.43
2023-04-19T07:20:17.969Z,15.50
2023-04-19T07:22:46.580Z,14.90
2023-04-19T07:25:16.564Z,14.97
2023-04-19T07:27:45.178Z,15.07
2023-04-19T07:30:13.556Z,15.13
2023-04-19T07:32:42.063Z,14.63
2023-04-19T07:35:10.954Z,14.87
2023-04-19T07:37:40.619Z,14.33
2023-04-19T07:40:10.215Z,14.30
2023-04-19T07:42:40.875Z,14.93
2023-04-19T07:45:11.512Z,14.30
2023-04-19T07:47:39.838Z,13.63
2023-04-19T07:50:10.731Z,13.70
2023-04-19T07:52:40.233Z,14.90
2023-04-19T07:55:09.601Z,14.73
2023-04-19T07:57:37.873Z,14.57
2023-04-19T08:00:07.099Z,14.07
2023-04-19T08:02:35.488Z,14.03
2023-04-19T08:05:04.140Z,14.80
2023-04-19T08:07:33.033Z,14.83
2023-04-19T08:10:02.695Z,13.27
2023-04-19T08:12:39.295Z,14.27
2023-04-19T08:15:32.931Z,15.40
2023-04-19T08:17:59.900Z,13.73
2023-04-19T08:20:29.188Z,14.67
2023-04-19T08:23:00.512Z,15.37
2023-04-19T08:25:32.164Z,14.70
2023-04-19T08:28:00.334Z,14.63
2023-04-19T08:30:37.653Z,16.63
2023-04-19T08:33:06.951Z,15.50
2023-04-19T08:35:36.931Z,16.53
2023-04-19T08:38:08.592Z,15.23
2023-04-19T08:40:49.378Z,15.30
2023-04-19T08:43:19.380Z,15.57
2023-04-19T08:45:49.561Z,16.20
2023-04-19T08:48:20.133Z,15.80
2023-04-19T08:51:04.175Z,15.13
2023-04-19T08:53:35.027Z,14.93
2023-04-19T08:56:21.095Z,15.00
2023-04-19T08:59:19.315Z,15.10
2023-04-19T09:01:48.695Z,15.17
2023-04-19T09:04:35.456Z,15.80
2023-04-19T09:07:05.146Z,16.30
2023-04-19T09:09:42.869Z,15.30
2023-04-19T09:12:19.438Z,15.60
2023-04-19T09:17:19.954Z,15.40
2023-04-19T09:19:49.253Z,15.50
2023-04-19T09:22:18.066Z,15.97
2023-04-19T09:27:27.356Z,16.27
2023-04-19T09:29:56.138Z,17.63
2023-04-19T09:32:25.271Z,16.23
2023-04-19T09:34:56.038Z,16.47
2023-04-19T09:39:56.302Z,15.93
2023-04-19T09:42:47.358Z,16.67
2023-04-19T09:45:29.236Z,15.97
2023-04-19T09:48:07.725Z,16.73
2023-04-19T09:50:50.315Z,17.80
2023-04-19T09:53:24.930Z,17.83
2023-04-19T09:56:01.539Z,17.17
2023-04-19T09:58:42.508Z,16.67
2023-04-19T10:01:20.307Z,16.03
2023-04-19T10:03:51.515Z,15.87
2023-04-19T10:08:56.000Z,15.97
2023-04-19T10:11:27.019Z,16.00
2023-04-19T10:14:01.248Z,16.27
2023-04-19T10:16:32.750Z,15.00
2023-04-19T10:19:02.433Z,16.37
2023-04-19T10:21:31.097Z,15.93
2023-04-19T10:24:00.160Z,16.07
2023-04-19T10:26:28.547Z,16.47
2023-04-19T10:28:58.861Z,17.10
2023-04-19T10:31:28.026Z,17.53
2023-04-19T10:33:57.832Z,15.87
2023-04-19T10:36:29.974Z,15.53
2023-04-19T10:38:58.097Z,15.27
2023-04-19T10:41:59.623Z,16.63
2023-04-19T10:44:29.937Z,16.47
2023-04-19T10:46:59.940Z,16.60
2023-04-19T10:49:30.050Z,15.63
2023-04-19T10:52:00.476Z,16.30
2023-04-19T10:54:34.495Z,16.53
2023-04-19T10:57:05.694Z,16.63
2023-04-19T10:59:35.923Z,16.87
2023-04-19T11:02:06.741Z,17.23
2023-04-19T11:05:14.215Z,16.50
2023-04-19T11:07:43.897Z,15.83
2023-04-19T11:10:12.976Z,16.30
2023-04-19T11:12:45.275Z,15.20
2023-04-19T11:15:14.769Z,15.77
2023-04-19T11:17:43.043Z,15.23
2023-04-19T11:20:13.601Z,15.50
2023-04-19T11:22:44.099Z,15.57
2023-04-19T11:25:14.247Z,16.40
2023-04-19T11:27:44.505Z,15.47
2023-04-19T11:30:17.504Z,15.97
2023-04-19T11:32:52.896Z,16.33
2023-04-19T11:35:23.185Z,15.57
2023-04-19T11:37:53.420Z,15.40
2023-04-19T11:40:23.846Z,16.17
2023-04-19T11:42:56.519Z,16.23
2023-04-19T11:45:35.528Z,14.93
2023-04-19T11:48:09.755Z,15.87
2023-04-19T11:50:39.839Z,15.87
2023-04-19T11:53:14.090Z,15.60
2023-04-19T11:55:47.782Z,15.73
2023-04-19T11:58:33.923Z,15.87
2023-04-19T12:01:10.169Z,15.90
2023-04-19T12:03:46.460Z,15.80
2023-04-19T12:06:16.373Z,15.17
2023-04-19T12:08:47.517Z,15.10
2023-04-19T12:11:15.854Z,15.73
2023-04-19T12:13:44.596Z,15.33
2023-04-19T12:16:15.174Z,15.33
2023-04-19T12:18:45.482Z,15.63
2023-04-19T12:21:26.479Z,14.33
2023-04-19T12:23:59.125Z,14.53
2023-04-19T12:26:28.677Z,14.60
2023-04-19T12:28:57.665Z,13.87
2023-04-19T12:31:27.922Z,14.93
2023-04-19T12:33:56.389Z,14.70
2023-04-19T12:36:26.586Z,13.13
2023-04-19T12:38:54.866Z,12.87
2023-04-19T12:41:23.099Z,13.00
2023-04-19T12:43:51.501Z,14.33
2023-04-19T12:46:20.201Z,14.37
2023-04-19T12:48:50.087Z,13.50
2023-04-19T12:51:18.172Z,13.30
2023-04-19T12:53:49.684Z,12.57
2023-04-19T12:56:19.873Z,13.30
2023-04-19T12:58:48.405Z,13.03
2023-04-19T13:01:19.939Z,12.60
2023-04-19T13:03:50.376Z,12.23
2023-04-19T13:06:19.080Z,12.60
2023-04-19T13:08:47.915Z,13.27
2023-04-19T13:11:17.887Z,11.33
2023-04-19T13:13:46.600Z,12.27
2023-04-19T13:16:20.104Z,12.10
2023-04-19T13:18:51.441Z,10.40
2023-04-19T13:21:23.431Z,10.57
2023-04-19T13:23:52.129Z,11.15
2023-04-19T13:26:20.698Z,10.65
2023-04-19T13:28:48.921Z,9.77
2023-04-19T13:31:18.109Z,9.63
2023-04-19T13:33:46.995Z,9.55
2023-04-19T13:36:19.966Z,9.60
2023-04-19T13:38:50.063Z,8.63
2023-04-19T13:41:18.923Z,9.48
2023-04-19T13:43:48.713Z,9.25
2023-04-19T13:46:17.543Z,8.60
2023-04-19T13:48:46.364Z,8.73
2023-04-19T13:51:15.085Z,8.65
2023-04-19T13:53:50.225Z,8.77
2023-04-19T13:56:18.675Z,8.60
2023-04-19T13:58:47.196Z,8.57
2023-04-19T14:01:16.948Z,8.18
2023-04-19T14:03:46.746Z,9.25
2023-04-19T14:06:15.204Z,9.00
2023-04-19T14:08:49.629Z,8.02
2023-04-19T14:11:21.864Z,7.97
2023-04-19T14:13:50.648Z,8.40
2023-04-19T14:16:19.203Z,8.27
2023-04-19T14:18:47.712Z,8.70
2023-04-19T14:21:16.320Z,8.48
2023-04-19T14:23:46.105Z,8.27
2023-04-19T14:26:14.330Z,9.02
2023-04-19T14:28:45.407Z,8.05
2023-04-19T14:31:17.606Z,7.45
2023-04-19T14:33:46.552Z,7.50
2023-04-19T14:36:14.776Z,8.15
2023-04-19T14:38:43.209Z,7.68
2023-04-19T14:41:16.671Z,7.72
2023-04-19T14:43:46.521Z,7.15
2023-04-19T14:46:15.428Z,7.88
2023-04-19T14:48:44.342Z,7.78
2023-04-19T14:51:12.829Z,7.05
2023-04-19T14:53:41.496Z,7.40
2023-04-19T14:56:10.085Z,7.78
2023-04-19T14:58:40.091Z,7.18
2023-04-19T15:01:15.354Z,7.97
2023-04-19T15:03:48.893Z,7.70
2023-04-19T15:06:20.887Z,7.60
2023-04-19T15:11:41.204Z,7.40
2023-04-19T15:14:13.349Z,7.70
2023-04-19T15:19:30.003Z,8.27
2023-04-19T15:22:09.713Z,7.90
2023-04-19T15:24:38.153Z,8.55
2023-04-19T15:27:07.313Z,8.45
2023-04-19T15:29:42.274Z,8.27
2023-04-19T15:32:25.845Z,9.02
2023-04-19T15:34:54.564Z,9.18
2023-04-19T15:37:32.206Z,9.40
2023-04-19T15:40:09.798Z,8.90
2023-04-19T15:42:38.199Z,9.45
2023-04-19T15:45:12.667Z,9.57
2023-04-19T15:47:55.331Z,8.88
2023-04-19T15:53:37.093Z,8.77
2023-04-19T15:58:49.323Z,8.10
2023-04-19T16:07:05.413Z,7.57
2023-04-19T16:15:18.036Z,7.72
2023-04-19T16:21:30.274Z,7.55
2023-04-19T16:24:02.598Z,7.50
2023-04-19T16:29:21.039Z,7.00
2023-04-19T16:34:25.713Z,6.80
2023-04-19T16:36:56.042Z,7.30
2023-04-19T16:39:24.406Z,7.22
2023-04-19T16:41:52.968Z,6.85
2023-04-19T16:44:21.029Z,7.20
2023-04-19T16:47:12.002Z,6.32
2023-04-19T16:49:41.894Z,7.10
2023-04-19T16:59:03.666Z,6.10
2023-04-19T18:23:40.078Z,6.00
2023-04-19T19:23:18.224Z,6.97
2023-04-19T19:26:37.130Z,6.33
2023-04-19T19:38:57.805Z,5.60
2023-04-19T19:41:56.308Z,6.20
2023-04-19T19:44:15.888Z,6.97
2023-04-19T19:46:58.706Z,6.60
2023-04-19T19:49:42.012Z,6.03
2023-04-19T19:59:30.159Z,7.47
2023-04-19T20:02:26.615Z,6.87
2023-04-19T20:11:08.082Z,6.80
2023-04-19T20:13:37.182Z,6.67
2023-04-19T20:19:40.855Z,6.50
2023-04-19T20:45:19.200Z,3.17
2023-04-19T20:50:23.170Z,3.30
2023-04-19T21:20:23.581Z,2.53
2023-04-19T21:22:55.651Z,2.60
2023-04-19T21:25:24.246Z,2.80
2023-04-19T21:27:55.090Z,2.53
2023-04-19T22:35:02.707Z,2.67
2023-04-19T23:44:38.384Z,3.10
2023-04-19T23:47:23.505Z,3.10
2023-04-19T23:52:43.021Z,4.27
2023-04-19T23:58:21.622Z,3.40
